Time;durP1;ratioP1;P1;durP2;ratioP2;P2;SDS_P1;SDS_P2;PMS_P1;PMS_P2;Temp;Humidity;BMP_temperature;BMP_pressure;BME280_temperature;BME280_humidity;BME280_pressure;Samples;Min_cycle;Max_cycle;Signal;HPM_P1;HPM_P2
2021/11/05 00:01:21;;;;;;;29.37;17.37;;;11.20;99.90;;;;;;6224252;23;20520;-84
2021/11/05 00:03:52;;;;;;;5.57;1.80;;;11.30;99.90;;;;;;6227853;23;20183;-86
2021/11/05 00:06:24;;;;;;;4.33;1.10;;;11.30;99.90;;;;;;6220020;23;20177;-86
2021/11/05 00:08:55;;;;;;;4.20;1.87;;;11.30;99.90;;;;;;6220044;23;20187;-86
2021/11/05 00:11:27;;;;;;;6.40;1.37;;;11.30;99.90;;;;;;6220128;23;20611;-86
2021/11/05 00:13:58;;;;;;;5.17;1.23;;;11.30;99.90;;;;;;6219448;23;20168;-86
2021/11/05 00:16:32;;;;;;;5.43;1.93;;;11.20;99.90;;;;;;6218747;23;20184;-86
2021/11/05 00:19:03;;;;;;;6.93;1.63;;;11.20;99.90;;;;;;6217892;23;20207;-86
2021/11/05 00:21:34;;;;;;;6.70;1.60;;;11.20;99.90;;;;;;6220489;23;20633;-85
2021/11/05 00:24:07;;;;;;;14.40;12.10;;;11.20;99.90;;;;;;6218692;23;20176;-87
2021/11/05 00:26:38;;;;;;;4.70;1.43;;;11.20;99.90;;;;;;6220266;23;20176;-86
2021/11/05 00:29:13;;;;;;;7.23;3.00;;;11.20;99.90;;;;;;6221416;23;20177;-86
2021/11/05 00:31:47;;;;;;;7.40;1.50;;;11.10;99.90;;;;;;6217489;23;20230;-86
2021/11/05 00:34:18;;;;;;;5.70;1.70;;;11.10;99.90;;;;;;6223474;23;20173;-86
2021/11/05 00:36:50;;;;;;;9.70;3.83;;;11.10;99.90;;;;;;6219397;23;20583;-86
2021/11/05 00:39:21;;;;;;;7.83;1.93;;;11.00;99.90;;;;;;6221355;23;20187;-87
2021/11/05 00:41:52;;;;;;;6.87;2.90;;;11.10;99.90;;;;;;6219437;23;20184;-86
2021/11/05 00:44:24;;;;;;;8.70;1.73;;;11.00;99.90;;;;;;6219829;23;20187;-87
2021/11/05 00:46:57;;;;;;;5.30;1.17;;;10.90;99.90;;;;;;6219065;23;20184;-86
2021/11/05 00:49:29;;;;;;;13.33;11.47;;;10.90;99.90;;;;;;6220901;23;20177;-86
2021/11/05 00:52:00;;;;;;;4.73;1.30;;;10.80;99.90;;;;;;6219625;23;20217;-88
2021/11/05 00:54:31;;;;;;;6.10;1.23;;;10.80;99.90;;;;;;6220911;23;20242;-95
2021/11/05 00:57:02;;;;;;;5.80;1.33;;;10.80;99.90;;;;;;6219913;23;20263;-90
2021/11/05 00:59:34;;;;;;;5.73;1.20;;;10.80;99.90;;;;;;6218179;23;20180;-86
2021/11/05 01:02:07;;;;;;;6.60;1.70;;;10.80;99.90;;;;;;6219513;23;20613;-87
2021/11/05 01:04:39;;;;;;;20.50;16.07;;;10.80;99.90;;;;;;6218912;23;20299;-86
2021/11/05 01:07:11;;;;;;;4.40;1.27;;;10.70;99.90;;;;;;6217570;23;20186;-85
2021/11/05 01:09:43;;;;;;;10.87;6.30;;;10.70;99.90;;;;;;6221903;23;20637;-86
2021/11/05 01:12:14;;;;;;;8.33;1.77;;;10.70;99.90;;;;;;6221185;23;20211;-87
2021/11/05 01:14:45;;;;;;;9.07;1.80;;;10.70;99.90;;;;;;6220926;23;20175;-86
2021/11/05 01:17:19;;;;;;;6.20;2.27;;;10.70;99.90;;;;;;6217509;23;20191;-87
2021/11/05 01:19:51;;;;;;;5.70;2.00;;;10.60;99.90;;;;;;6218154;23;20229;-88
2021/11/05 01:22:22;;;;;;;17.23;11.23;;;10.50;99.90;;;;;;6218503;23;20168;-86
2021/11/05 01:24:54;;;;;;;16.37;14.77;;;10.50;99.90;;;;;;6218798;23;20499;-86
2021/11/05 01:27:25;;;;;;;8.10;1.90;;;10.50;99.90;;;;;;6218907;23;20193;-86
2021/11/05 01:29:59;;;;;;;8.17;1.80;;;10.50;99.90;;;;;;6219261;23;20169;-86
2021/11/05 01:32:32;;;;;;;11.10;3.53;;;10.50;99.90;;;;;;6219027;23;20223;-86
2021/11/05 01:35:04;;;;;;;6.23;1.80;;;10.50;99.90;;;;;;6217968;23;20183;-87
2021/11/05 01:37:36;;;;;;;8.17;2.10;;;10.40;99.90;;;;;;6218924;23;20185;-87
2021/11/05 01:40:09;;;;;;;8.37;2.30;;;10.40;99.90;;;;;;6218895;23;20215;-86
2021/11/05 01:42:42;;;;;;;9.60;4.43;;;10.40;99.90;;;;;;6217741;23;20169;-88
2021/11/05 01:45:14;;;;;;;3.10;1.20;;;10.40;99.90;;;;;;6219332;23;20176;-89
2021/11/05 01:47:47;;;;;;;8.70;3.23;;;10.40;99.90;;;;;;6218947;23;20187;-89
2021/11/05 01:50:19;;;;;;;7.53;1.90;;;10.30;99.90;;;;;;6220236;23;20168;-88
2021/11/05 01:52:52;;;;;;;6.63;1.90;;;10.20;99.90;;;;;;6219802;23;20490;-89
2021/11/05 01:55:24;;;;;;;7.17;2.77;;;10.20;99.90;;;;;;6221283;23;20622;-88
2021/11/05 01:58:01;;;;;;;3.40;1.70;;;10.10;99.90;;;;;;6226740;23;20207;-88
2021/11/05 02:00:35;;;;;;;6.97;1.63;;;10.10;99.90;;;;;;6235093;23;20202;-88
2021/11/05 02:03:09;;;;;;;5.13;1.90;;;10.00;99.90;;;;;;6234994;23;20204;-87
2021/11/05 02:05:43;;;;;;;5.47;2.00;;;10.00;99.90;;;;;;6235826;23;20165;-87
2021/11/05 02:08:17;;;;;;;10.93;5.80;;;10.00;99.90;;;;;;6238479;23;20179;-85
2021/11/05 02:10:49;;;;;;;3.63;1.43;;;9.90;99.90;;;;;;6237196;22;20243;-88
2021/11/05 02:13:23;;;;;;;8.97;2.33;;;9.90;99.90;;;;;;6269150;23;20179;-88
2021/11/05 02:15:58;;;;;;;7.30;2.53;;;9.90;99.90;;;;;;6262907;23;20179;-90
2021/11/05 02:18:32;;;;;;;4.77;1.30;;;9.90;99.90;;;;;;6266341;22;20178;-88
2021/11/05 02:21:05;;;;;;;9.47;5.53;;;9.80;99.90;;;;;;6266841;23;20183;-88
2021/11/05 02:23:42;;;;;;;7.70;2.00;;;9.80;99.90;;;;;;6239874;23;20175;-89
2021/11/05 02:26:13;;;;;;;5.53;1.93;;;9.90;99.90;;;;;;6263336;23;20232;-88
2021/11/05 02:28:45;;;;;;;6.50;2.30;;;9.80;99.90;;;;;;6237916;23;20194;-88
2021/11/05 02:31:17;;;;;;;7.20;2.23;;;9.80;99.90;;;;;;6264114;23;20210;-88
2021/11/05 02:33:49;;;;;;;8.87;3.57;;;9.80;99.90;;;;;;6235475;23;20167;-89
2021/11/05 02:36:21;;;;;;;11.97;4.33;;;9.80;99.90;;;;;;6259407;23;20186;-88
2021/11/05 02:38:57;;;;;;;10.93;3.27;;;9.70;99.90;;;;;;6261785;23;20178;-87
2021/11/05 02:41:29;;;;;;;7.90;2.63;;;9.70;99.90;;;;;;6263491;23;20296;-88
2021/11/05 02:44:03;;;;;;;9.10;2.87;;;9.70;99.90;;;;;;6267460;22;20165;-89
2021/11/05 02:46:35;;;;;;;15.53;4.67;;;9.60;99.90;;;;;;6268274;23;20205;-88
2021/11/05 02:49:27;;;;;;;9.60;2.90;;;9.60;99.90;;;;;;6266128;23;20176;-88
2021/11/05 02:51:59;;;;;;;10.10;2.70;;;9.60;99.90;;;;;;6265251;22;20297;-87
2021/11/05 02:54:34;;;;;;;14.47;3.00;;;9.70;99.90;;;;;;6238774;23;20172;-87
2021/11/05 02:57:06;;;;;;;9.63;2.47;;;9.60;99.90;;;;;;6263141;22;20168;-88
2021/11/05 02:59:39;;;;;;;11.00;2.63;;;9.70;99.90;;;;;;6263481;22;20430;-88
2021/11/05 03:02:11;;;;;;;15.47;2.80;;;9.70;99.90;;;;;;6267919;23;20170;-87
2021/11/05 03:04:42;;;;;;;8.10;2.30;;;9.70;99.90;;;;;;6241515;23;20198;-87
2021/11/05 03:07:14;;;;;;;12.00;2.40;;;9.70;99.90;;;;;;6263844;22;20183;-88
2021/11/05 03:09:50;;;;;;;10.40;3.20;;;9.60;99.90;;;;;;6269580;23;20175;-88
2021/11/05 03:15:08;;;;;;;15.13;2.83;;;9.60;99.90;;;;;;6209010;23;20260;-89
2021/11/05 03:18:07;;;;;;;10.73;2.60;;;9.60;99.90;;;;;;6184380;23;20228;-87
2021/11/05 03:20:40;;;;;;;11.40;3.17;;;9.60;99.90;;;;;;6204960;23;20201;-89
2021/11/05 03:23:12;;;;;;;17.50;5.67;;;9.60;99.90;;;;;;6204132;23;20187;-87
2021/11/05 03:25:47;;;;;;;10.80;3.30;;;9.60;99.90;;;;;;6209089;23;20173;-88
2021/11/05 03:28:19;;;;;;;12.10;3.03;;;9.70;99.90;;;;;;6201307;23;20215;-89
2021/11/05 03:30:51;;;;;;;16.07;3.87;;;9.70;99.90;;;;;;6193692;23;20196;-88
2021/11/05 03:33:23;;;;;;;14.53;4.20;;;9.70;99.90;;;;;;6200057;23;20224;-89
2021/11/05 03:35:54;;;;;;;12.67;4.00;;;9.70;99.90;;;;;;6196706;23;20180;-89
2021/11/05 03:38:26;;;;;;;15.13;5.37;;;9.70;99.90;;;;;;6198560;23;20192;-88
2021/11/05 03:40:59;;;;;;;10.93;3.50;;;9.80;99.90;;;;;;6196237;23;20654;-88
2021/11/05 03:43:31;;;;;;;10.93;3.23;;;9.70;99.90;;;;;;6202025;23;20198;-88
2021/11/05 03:46:04;;;;;;;13.63;3.47;;;9.70;99.90;;;;;;6205353;23;20179;-88
2021/11/05 03:48:39;;;;;;;14.80;3.77;;;9.60;99.90;;;;;;6205742;23;20775;-88
2021/11/05 03:51:11;;;;;;;13.17;3.20;;;9.60;99.90;;;;;;6202948;23;20186;-88
2021/11/05 03:53:44;;;;;;;16.37;3.63;;;9.60;99.90;;;;;;6205359;23;20203;-88
2021/11/05 03:56:18;;;;;;;12.67;3.43;;;9.60;99.90;;;;;;6204752;23;20212;-88
2021/11/05 03:58:50;;;;;;;16.47;3.50;;;9.50;99.90;;;;;;6206412;23;20180;-89
2021/11/05 04:01:22;;;;;;;12.97;3.13;;;9.50;99.90;;;;;;6207208;23;20173;-88
2021/11/05 04:03:55;;;;;;;14.80;3.43;;;9.40;99.90;;;;;;6211050;23;20188;-88
2021/11/05 04:06:29;;;;;;;13.53;3.63;;;9.40;99.90;;;;;;6207420;23;20166;-88
2021/11/05 04:11:37;;;;;;;14.33;3.17;;;9.40;99.90;;;;;;6212359;22;20208;-88
2021/11/05 04:14:09;;;;;;;11.70;3.60;;;9.40;99.90;;;;;;6229141;23;20178;-88
2021/11/05 04:16:41;;;;;;;13.40;3.60;;;9.30;99.90;;;;;;6227505;23;20177;-88
2021/11/05 04:19:13;;;;;;;10.00;3.17;;;9.30;99.90;;;;;;6228296;23;20179;-90
2021/11/05 04:21:44;;;;;;;10.03;3.23;;;9.30;99.90;;;;;;6224206;23;20182;-88
2021/11/05 04:24:16;;;;;;;13.70;3.27;;;9.30;99.90;;;;;;6228794;23;20179;-88
2021/11/05 04:26:49;;;;;;;13.60;3.53;;;9.30;99.90;;;;;;6225088;23;20180;-88
2021/11/05 04:29:21;;;;;;;12.93;3.40;;;9.30;99.90;;;;;;6228980;23;20203;-88
2021/11/05 04:31:53;;;;;;;11.43;3.53;;;9.20;99.90;;;;;;6223508;23;20169;-87
2021/11/05 04:34:25;;;;;;;12.50;3.27;;;9.20;99.90;;;;;;6223220;23;20168;-89
2021/11/05 04:36:58;;;;;;;11.53;3.63;;;9.20;99.90;;;;;;6224620;23;20290;-89
2021/11/05 04:39:29;;;;;;;12.23;4.07;;;9.20;99.90;;;;;;6227139;23;20198;-84
2021/11/05 04:42:02;;;;;;;14.37;4.03;;;9.20;99.90;;;;;;6222183;23;20290;-88
2021/11/05 04:44:33;;;;;;;14.70;3.70;;;9.20;99.90;;;;;;6221284;23;20191;-87
2021/11/05 04:47:05;;;;;;;12.13;3.40;;;9.20;99.90;;;;;;6221285;23;20230;-88
2021/11/05 04:52:15;;;;;;;15.17;3.57;;;9.20;99.90;;;;;;6237984;22;20206;-86
2021/11/05 04:54:47;;;;;;;14.13;3.23;;;9.20;99.90;;;;;;6260372;22;20222;-88
2021/11/05 04:57:21;;;;;;;11.47;3.37;;;9.20;99.90;;;;;;6252262;23;20174;-87
2021/11/05 04:59:52;;;;;;;12.60;3.70;;;9.10;99.90;;;;;;6255450;23;20179;-88
2021/11/05 05:02:23;;;;;;;9.90;3.67;;;9.10;99.90;;;;;;6205019;23;20202;-88
2021/11/05 05:04:55;;;;;;;14.30;3.90;;;9.00;99.90;;;;;;6263871;23;20174;-89
2021/11/05 05:07:26;;;;;;;14.37;3.40;;;8.90;99.90;;;;;;6270246;22;20175;-87
2021/11/05 05:09:57;;;;;;;11.47;3.37;;;8.90;99.90;;;;;;6271149;22;20176;-89
2021/11/05 05:12:30;;;;;;;16.67;3.47;;;8.80;99.90;;;;;;6270772;23;20213;-89
2021/11/05 05:15:01;;;;;;;11.20;3.40;;;8.80;99.90;;;;;;6268669;23;20183;-89
2021/11/05 05:17:32;;;;;;;16.53;3.57;;;8.70;99.90;;;;;;6266507;23;20182;-88
2021/11/05 05:20:04;;;;;;;12.33;3.60;;;8.70;99.90;;;;;;6262692;23;20190;-88
2021/11/05 05:22:36;;;;;;;8.20;2.73;;;8.80;99.90;;;;;;6267851;22;20162;-88
2021/11/05 05:25:10;;;;;;;15.00;3.87;;;8.80;99.90;;;;;;6234454;23;20190;-88
2021/11/05 05:27:44;;;;;;;10.50;3.50;;;8.90;99.90;;;;;;6256749;23;20185;-87
2021/11/05 05:30:18;;;;;;;13.60;3.27;;;9.00;99.90;;;;;;6266643;23;20176;-86
2021/11/05 05:32:50;;;;;;;11.00;3.10;;;9.10;99.90;;;;;;6270434;23;20215;-88
2021/11/05 05:35:23;;;;;;;12.10;3.10;;;9.10;99.90;;;;;;6272042;22;20178;-88
2021/11/05 05:37:56;;;;;;;12.23;3.87;;;9.10;99.90;;;;;;6272936;22;20208;-89
2021/11/05 05:40:27;;;;;;;15.03;3.17;;;9.20;99.90;;;;;;6261765;23;20205;-88
2021/11/05 05:43:00;;;;;;;13.53;3.10;;;9.20;99.90;;;;;;6260519;23;20170;-89
2021/11/05 05:45:33;;;;;;;11.77;3.07;;;9.20;99.90;;;;;;6256748;23;20178;-88
2021/11/05 05:48:04;;;;;;;12.83;3.63;;;9.20;99.90;;;;;;6255529;23;20190;-88
2021/11/05 05:50:36;;;;;;;11.97;3.83;;;9.20;99.90;;;;;;6253498;23;20187;-88
2021/11/05 05:53:07;;;;;;;9.33;3.20;;;9.20;99.90;;;;;;6252873;23;20202;-88
2021/11/05 05:55:39;;;;;;;11.67;3.40;;;9.20;99.90;;;;;;6250765;23;20187;-88
2021/11/05 05:58:12;;;;;;;13.73;3.27;;;9.10;99.90;;;;;;6251274;23;20171;-87
2021/11/05 06:00:44;;;;;;;13.77;3.50;;;9.00;99.90;;;;;;6254574;23;20167;-87
2021/11/05 06:03:16;;;;;;;13.77;3.70;;;9.00;99.90;;;;;;6250878;23;20179;-90
2021/11/05 06:05:48;;;;;;;12.33;3.37;;;8.90;99.90;;;;;;6251941;23;20175;-88
2021/11/05 06:08:19;;;;;;;14.13;3.47;;;8.80;99.90;;;;;;6251205;23;20183;-88
2021/11/05 06:10:50;;;;;;;12.83;4.73;;;8.80;99.90;;;;;;6251259;23;20214;-89
2021/11/05 06:13:23;;;;;;;11.07;3.20;;;8.70;99.90;;;;;;6248122;23;20203;-89
2021/11/05 06:15:54;;;;;;;13.93;3.40;;;8.60;99.90;;;;;;6224170;23;20171;-88
2021/11/05 06:18:26;;;;;;;13.93;3.40;;;8.50;99.90;;;;;;6251176;23;20168;-88
2021/11/05 06:20:57;;;;;;;12.03;3.67;;;8.50;99.90;;;;;;6225867;23;20201;-89
2021/11/05 06:23:29;;;;;;;6.73;2.80;;;8.50;99.90;;;;;;6250377;23;20229;-88
2021/11/05 06:26:00;;;;;;;8.90;3.00;;;8.40;99.90;;;;;;6250709;23;20595;-88
2021/11/05 06:28:34;;;;;;;12.33;3.13;;;8.40;99.90;;;;;;6251187;23;20190;-88
2021/11/05 06:31:07;;;;;;;7.87;3.43;;;8.40;99.90;;;;;;6252030;23;20201;-88
2021/11/05 06:33:39;;;;;;;10.30;3.30;;;8.40;99.90;;;;;;6251937;23;20253;-88
2021/11/05 06:36:11;;;;;;;12.13;3.17;;;8.40;99.90;;;;;;6249728;23;20183;-89
2021/11/05 06:38:43;;;;;;;13.20;2.90;;;8.40;99.90;;;;;;6251274;23;20170;-88
2021/11/05 06:41:15;;;;;;;14.50;3.30;;;8.40;99.90;;;;;;6250838;23;20253;-89
2021/11/05 06:43:49;;;;;;;9.13;3.03;;;8.40;99.90;;;;;;6249585;23;20179;-89
2021/11/05 06:46:20;;;;;;;7.83;3.00;;;8.40;99.90;;;;;;6249865;23;20512;-89
2021/11/05 06:48:53;;;;;;;10.83;3.10;;;8.30;99.90;;;;;;6252001;23;20590;-88
2021/11/05 06:51:25;;;;;;;9.87;3.10;;;8.30;99.90;;;;;;6223146;23;20189;-89
2021/11/05 06:53:56;;;;;;;9.73;3.33;;;8.30;99.90;;;;;;6224601;23;20207;-88
2021/11/05 06:56:27;;;;;;;9.40;2.93;;;8.20;99.90;;;;;;6248396;23;20187;-87
2021/11/05 06:59:05;;;;;;;14.60;3.20;;;8.30;99.90;;;;;;6250244;23;20179;-88
2021/11/05 07:01:36;;;;;;;7.60;2.77;;;8.30;99.90;;;;;;6249459;23;20178;-88
2021/11/05 07:04:08;;;;;;;8.60;2.83;;;8.30;99.90;;;;;;6250860;23;20170;-88
2021/11/05 07:06:45;;;;;;;10.30;2.77;;;8.40;99.90;;;;;;6248294;23;20267;-87
2021/11/05 07:09:16;;;;;;;8.30;2.60;;;8.40;99.90;;;;;;6249665;23;20179;-89
2021/11/05 07:11:48;;;;;;;7.73;2.63;;;8.40;99.90;;;;;;6249948;23;20210;-89
2021/11/05 07:14:22;;;;;;;11.27;2.60;;;8.40;99.90;;;;;;6249430;23;20228;-88
2021/11/05 07:16:53;;;;;;;13.57;2.80;;;8.50;99.90;;;;;;6248090;23;20228;-89
2021/11/05 07:19:25;;;;;;;12.73;2.70;;;8.50;99.90;;;;;;6251242;23;20201;-89
2021/11/05 07:22:02;;;;;;;7.97;2.33;;;8.50;99.90;;;;;;6251181;23;20179;-88
2021/11/05 07:24:36;;;;;;;8.83;2.20;;;8.50;99.90;;;;;;6250794;23;20193;-88
2021/11/05 07:27:10;;;;;;;8.70;2.47;;;8.60;99.90;;;;;;6251180;23;20709;-87
2021/11/05 07:29:43;;;;;;;9.60;2.50;;;8.60;99.90;;;;;;6250921;23;20176;-88
2021/11/05 07:32:15;;;;;;;9.70;3.03;;;8.70;99.90;;;;;;6251365;23;20178;-88
2021/11/05 07:34:48;;;;;;;6.93;2.20;;;8.80;99.90;;;;;;6251280;23;20195;-88
2021/11/05 07:37:20;;;;;;;8.27;2.43;;;8.80;99.90;;;;;;6262622;23;20168;-88
2021/11/05 07:39:52;;;;;;;4.47;1.93;;;8.90;99.90;;;;;;6240895;23;20164;-88
2021/11/05 07:42:26;;;;;;;8.10;2.50;;;8.90;99.90;;;;;;6267032;22;20171;-88
2021/11/05 07:44:59;;;;;;;6.97;1.90;;;9.00;99.90;;;;;;6242322;23;20178;-90
2021/11/05 07:47:30;;;;;;;6.33;2.03;;;9.10;99.90;;;;;;6263858;23;20177;-89
2021/11/05 07:50:01;;;;;;;3.87;1.87;;;9.20;99.90;;;;;;6262030;23;20186;-87
2021/11/05 07:52:33;;;;;;;2.90;1.60;;;9.20;99.90;;;;;;6267082;23;20202;-87
2021/11/05 07:55:04;;;;;;;5.77;2.00;;;9.20;99.90;;;;;;6267314;23;20287;-88
2021/11/05 07:57:36;;;;;;;6.57;1.80;;;9.40;99.90;;;;;;6264413;23;20186;-87
2021/11/05 08:00:13;;;;;;;6.40;2.00;;;9.40;99.90;;;;;;6259039;23;20178;-85
2021/11/05 08:02:45;;;;;;;4.13;1.97;;;9.40;99.90;;;;;;6229007;23;20176;-88
2021/11/05 08:05:17;;;;;;;6.93;1.40;;;9.40;99.90;;;;;;6254453;23;20225;-88
2021/11/05 08:07:48;;;;;;;5.87;1.67;;;9.40;99.90;;;;;;6252778;23;20180;-87
2021/11/05 08:10:21;;;;;;;5.37;1.33;;;9.40;99.90;;;;;;6252020;23;20171;-89
2021/11/05 08:12:53;;;;;;;4.73;1.30;;;9.40;99.90;;;;;;6251870;23;20168;-88
2021/11/05 08:15:27;;;;;;;4.47;1.30;;;9.40;99.90;;;;;;6251685;23;20216;-88
2021/11/05 08:17:59;;;;;;;4.57;1.30;;;9.50;99.90;;;;;;6251649;23;20178;-88
2021/11/05 08:20:31;;;;;;;4.90;1.37;;;9.50;99.90;;;;;;6251431;23;20179;-89
2021/11/05 08:23:02;;;;;;;6.93;1.60;;;9.50;99.90;;;;;;6251376;23;20195;-88
2021/11/05 08:25:33;;;;;;;5.50;1.50;;;9.50;99.90;;;;;;6250574;23;20176;-88
2021/11/05 08:28:05;;;;;;;4.93;1.40;;;9.40;99.90;;;;;;6252008;23;20179;-88
2021/11/05 08:30:39;;;;;;;4.30;1.23;;;9.50;99.90;;;;;;6251302;23;20178;-88
2021/11/05 08:33:11;;;;;;;5.93;1.50;;;9.50;99.90;;;;;;6225221;23;20488;-88
2021/11/05 08:35:48;;;;;;;6.10;1.80;;;9.50;99.90;;;;;;6249468;23;20200;-88
2021/11/05 08:38:21;;;;;;;5.63;1.60;;;9.40;99.90;;;;;;6250737;23;20171;-87
2021/11/05 08:40:55;;;;;;;11.97;1.97;;;9.40;99.90;;;;;;6250315;23;20184;-87
2021/11/05 08:43:31;;;;;;;8.23;1.60;;;9.40;99.90;;;;;;6250589;23;20172;-87
2021/11/05 08:46:08;;;;;;;4.90;1.60;;;9.40;99.90;;;;;;6224208;23;20184;-86
2021/11/05 08:49:03;;;;;;;4.03;1.60;;;9.40;99.90;;;;;;6251227;23;20814;-88
2021/11/05 08:51:35;;;;;;;7.10;1.80;;;9.40;99.90;;;;;;6250103;23;20439;-89
2021/11/05 08:54:06;;;;;;;4.37;1.40;;;9.40;99.90;;;;;;6249677;23;20180;-88
2021/11/05 08:56:38;;;;;;;4.53;1.30;;;9.40;99.90;;;;;;6247774;23;20195;-88
2021/11/05 08:59:13;;;;;;;3.90;1.43;;;9.30;99.90;;;;;;6249733;23;20282;-88
2021/11/05 09:01:47;;;;;;;5.30;1.60;;;9.30;99.90;;;;;;6251812;23;20190;-89
2021/11/05 09:04:19;;;;;;;4.30;1.43;;;9.40;99.90;;;;;;6249099;23;20175;-89
2021/11/05 09:06:52;;;;;;;4.83;1.47;;;9.40;99.90;;;;;;6248535;23;20167;-88
2021/11/05 09:09:23;;;;;;;3.73;1.47;;;9.40;99.90;;;;;;6249228;23;20536;-88
2021/11/05 09:11:55;;;;;;;5.83;1.93;;;9.40;99.90;;;;;;6250139;23;20186;-89
2021/11/05 09:14:26;;;;;;;6.50;1.53;;;9.40;99.90;;;;;;6248953;23;20179;-88
2021/11/05 09:17:13;;;;;;;7.10;1.83;;;9.40;99.90;;;;;;6252174;23;20168;-88
2021/11/05 09:19:44;;;;;;;5.47;1.80;;;9.50;99.90;;;;;;6249164;23;20179;-89
2021/11/05 09:22:16;;;;;;;4.73;1.73;;;9.40;99.90;;;;;;6250884;23;20175;-89
2021/11/05 09:24:47;;;;;;;6.47;1.73;;;9.40;99.90;;;;;;6252029;23;20183;-88
2021/11/05 09:27:18;;;;;;;5.97;1.50;;;9.40;99.90;;;;;;6248909;23;20183;-88
2021/11/05 09:29:50;;;;;;;7.57;2.53;;;9.40;99.90;;;;;;6249853;23;20263;-89
2021/11/05 09:32:24;;;;;;;6.03;1.60;;;9.30;99.90;;;;;;6250433;23;20233;-88
2021/11/05 09:34:57;;;;;;;7.97;2.07;;;9.30;99.90;;;;;;6249326;23;20576;-89
2021/11/05 09:37:28;;;;;;;7.00;1.57;;;9.30;99.90;;;;;;6249430;23;20183;-88
2021/11/05 09:39:59;;;;;;;4.00;1.73;;;9.30;99.90;;;;;;6223495;23;20175;-88
2021/11/05 09:42:31;;;;;;;4.47;1.70;;;9.30;99.90;;;;;;6248328;23;20176;-88
2021/11/05 09:45:02;;;;;;;4.53;1.63;;;9.30;99.90;;;;;;6242714;23;20186;-87
2021/11/05 09:47:37;;;;;;;6.37;2.10;;;9.30;99.90;;;;;;6248840;23;20194;-87
2021/11/05 09:50:10;;;;;;;6.93;2.07;;;9.20;99.90;;;;;;6247599;23;20179;-87
2021/11/05 09:52:42;;;;;;;5.80;1.80;;;9.30;99.90;;;;;;6249192;23;20180;-88
2021/11/05 09:55:13;;;;;;;8.70;2.20;;;9.20;99.90;;;;;;6248023;23;20218;-88
2021/11/05 09:57:45;;;;;;;5.07;1.73;;;9.20;99.90;;;;;;6263098;23;20232;-88
2021/11/05 10:00:20;;;;;;;8.40;2.13;;;9.20;99.90;;;;;;6269472;23;20155;-87
2021/11/05 10:02:54;;;;;;;4.90;1.90;;;9.20;99.90;;;;;;6269612;22;20189;-92
2021/11/05 10:05:25;;;;;;;7.80;1.97;;;9.20;99.90;;;;;;6258605;23;20238;-89
2021/11/05 10:07:59;;;;;;;5.47;2.00;;;9.10;99.90;;;;;;6255463;23;20199;-89
2021/11/05 10:10:32;;;;;;;5.67;2.37;;;9.10;99.90;;;;;;6254947;23;20179;-87
2021/11/05 10:13:06;;;;;;;7.93;2.20;;;9.10;99.90;;;;;;6251138;23;20168;-89
2021/11/05 10:15:43;;;;;;;4.60;2.23;;;9.00;99.90;;;;;;6223172;23;20199;-89
2021/11/05 10:18:19;;;;;;;4.13;2.20;;;9.10;99.90;;;;;;6249443;23;20176;-88
2021/11/05 10:21:08;;;;;;;6.83;2.10;;;9.00;99.90;;;;;;6249381;23;20210;-88
2021/11/05 10:23:40;;;;;;;4.33;1.60;;;9.10;99.90;;;;;;6249191;23;20190;-88
2021/11/05 10:26:22;;;;;;;5.50;2.27;;;9.10;99.90;;;;;;6221754;23;20241;-88
2021/11/05 10:28:54;;;;;;;7.27;2.37;;;9.00;99.90;;;;;;6249131;23;20168;-88
2021/11/05 10:31:38;;;;;;;6.67;1.60;;;9.10;99.90;;;;;;6249192;23;20172;-88
2021/11/05 10:34:15;;;;;;;8.27;2.70;;;9.00;99.90;;;;;;6249456;23;20171;-88
2021/11/05 10:36:52;;;;;;;7.97;2.37;;;9.00;99.90;;;;;;6246810;23;20202;-90
2021/11/05 10:39:23;;;;;;;7.10;1.80;;;9.10;99.90;;;;;;6248848;23;20170;-88
2021/11/05 10:41:59;;;;;;;7.63;2.17;;;9.10;99.90;;;;;;6249034;23;20160;-88
2021/11/05 10:44:30;;;;;;;6.13;2.10;;;9.00;99.90;;;;;;6249063;23;20168;-89
2021/11/05 10:47:09;;;;;;;7.77;2.20;;;9.00;99.90;;;;;;6247643;23;20211;-88
2021/11/05 10:49:43;;;;;;;7.57;2.27;;;8.90;99.90;;;;;;6249623;23;20585;-88
2021/11/05 10:52:20;;;;;;;6.03;2.37;;;8.80;99.90;;;;;;6248802;23;20196;-88
2021/11/05 10:54:59;;;;;;;7.03;2.30;;;8.80;99.90;;;;;;6251086;23;20179;-88
2021/11/05 10:57:40;;;;;;;5.80;2.20;;;8.80;99.90;;;;;;6251734;23;20175;-88
2021/11/05 11:00:32;;;;;;;4.40;2.37;;;8.90;99.90;;;;;;6250054;23;20233;-88
2021/11/05 11:03:15;;;;;;;6.63;1.87;;;8.80;99.90;;;;;;6244565;23;20205;-89
2021/11/05 11:05:48;;;;;;;7.10;2.00;;;8.80;99.90;;;;;;6250051;23;20167;-89
2021/11/05 11:08:25;;;;;;;5.50;2.07;;;8.80;99.90;;;;;;6224699;23;20168;-88
2021/11/05 11:10:59;;;;;;;4.07;1.63;;;8.80;99.90;;;;;;6250091;23;20230;-88
2021/11/05 11:13:40;;;;;;;6.97;2.37;;;8.80;99.90;;;;;;6250581;23;20199;-89
2021/11/05 11:16:17;;;;;;;6.50;1.93;;;8.80;99.90;;;;;;6248859;23;20195;-87
2021/11/05 11:18:55;;;;;;;6.67;2.07;;;8.80;99.90;;;;;;6250578;23;20172;-89
2021/11/05 11:21:30;;;;;;;6.70;2.27;;;8.80;99.90;;;;;;6248340;23;20498;-88
2021/11/05 11:24:03;;;;;;;5.43;1.70;;;8.80;99.90;;;;;;6251068;23;20183;-88
2021/11/05 11:26:35;;;;;;;6.23;2.03;;;8.80;99.90;;;;;;6250233;23;20200;-86
2021/11/05 11:29:08;;;;;;;7.27;1.90;;;8.80;99.90;;;;;;6250809;23;20210;-88
2021/11/05 11:31:40;;;;;;;4.70;1.60;;;8.80;99.90;;;;;;6250693;23;20168;-88
2021/11/05 11:34:14;;;;;;;4.27;1.57;;;8.80;99.90;;;;;;6249606;23;20517;-87
2021/11/05 11:36:48;;;;;;;3.80;1.53;;;8.80;99.90;;;;;;6249081;23;20207;-89
2021/11/05 11:39:22;;;;;;;5.77;1.93;;;8.80;99.90;;;;;;6250721;23;20167;-88
2021/11/05 11:41:56;;;;;;;6.30;1.90;;;8.80;99.90;;;;;;6250914;23;20164;-89
2021/11/05 11:44:29;;;;;;;4.90;1.83;;;8.80;99.90;;;;;;6251053;23;20168;-89
2021/11/05 11:47:03;;;;;;;3.80;1.67;;;8.80;99.90;;;;;;6251075;22;20187;-89
2021/11/05 11:49:44;;;;;;;4.73;1.50;;;8.80;99.90;;;;;;6225787;23;20190;-87
2021/11/05 11:52:34;;;;;;;4.60;1.50;;;8.80;99.90;;;;;;6249627;23;20186;-88
2021/11/05 11:55:18;;;;;;;5.00;1.63;;;8.80;99.90;;;;;;6249757;23;20211;-88
2021/11/05 11:57:49;;;;;;;4.87;1.57;;;8.80;99.90;;;;;;6249243;23;20224;-87
2021/11/05 12:00:22;;;;;;;5.27;1.70;;;8.80;99.90;;;;;;6223744;23;20179;-87
2021/11/05 12:03:03;;;;;;;5.20;1.67;;;8.70;99.90;;;;;;6250529;23;20625;-89
2021/11/05 12:05:41;;;;;;;2.77;1.53;;;8.80;99.90;;;;;;6250109;23;20175;-88
2021/11/05 12:08:25;;;;;;;5.40;1.47;;;8.70;99.90;;;;;;6250012;23;20176;-87
2021/11/05 12:11:14;;;;;;;6.27;1.67;;;8.80;99.90;;;;;;6250419;23;20216;-88
2021/11/05 12:13:48;;;;;;;3.90;1.57;;;8.80;99.90;;;;;;6265299;23;20466;-88
2021/11/05 12:16:23;;;;;;;5.10;1.53;;;8.80;99.90;;;;;;6270805;23;20194;-88
2021/11/05 12:19:13;;;;;;;3.53;1.50;;;8.80;99.90;;;;;;6239861;22;20175;-88
2021/11/05 12:21:47;;;;;;;4.20;1.57;;;8.80;99.90;;;;;;6232377;23;20176;-87
2021/11/05 12:24:33;;;;;;;7.17;1.50;;;8.80;99.90;;;;;;6249584;23;20170;-87
2021/11/05 12:27:15;;;;;;;2.53;1.60;;;8.80;99.90;;;;;;6223077;23;20168;-88
2021/11/05 12:30:02;;;;;;;4.37;1.37;;;8.80;99.90;;;;;;6250777;23;20167;-88
2021/11/05 12:32:41;;;;;;;3.90;1.30;;;8.80;99.90;;;;;;6224308;23;20179;-89
2021/11/05 12:35:27;;;;;;;4.27;1.40;;;8.80;99.90;;;;;;6249437;23;20645;-88
2021/11/05 12:38:12;;;;;;;4.47;1.53;;;8.80;99.90;;;;;;6250285;23;20195;-89
2021/11/05 12:40:55;;;;;;;6.87;1.60;;;8.80;99.90;;;;;;6254019;22;20598;-88
2021/11/05 12:43:48;;;;;;;3.47;1.33;;;8.80;99.90;;;;;;6225040;23;20168;-89
2021/11/05 12:46:23;;;;;;;6.87;2.00;;;8.80;99.90;;;;;;6225090;23;20271;-89
2021/11/05 12:48:57;;;;;;;5.07;1.43;;;8.80;99.90;;;;;;6252660;22;20175;-88
2021/11/05 12:51:41;;;;;;;4.10;1.60;;;8.80;99.90;;;;;;6250184;23;20195;-88
2021/11/05 12:54:15;;;;;;;3.43;1.33;;;8.80;99.90;;;;;;6250301;23;20179;-89
2021/11/05 12:56:53;;;;;;;3.40;1.63;;;8.80;99.90;;;;;;6249679;23;20735;-89
2021/11/05 12:59:27;;;;;;;7.13;1.70;;;8.80;99.90;;;;;;6250644;23;20504;-88
2021/11/05 13:02:02;;;;;;;7.27;1.70;;;8.90;99.90;;;;;;6250363;23;20175;-88
2021/11/05 13:04:40;;;;;;;4.83;1.03;;;8.90;99.90;;;;;;6249838;23;20172;-88
2021/11/05 13:07:11;;;;;;;4.30;1.10;;;8.90;99.90;;;;;;6249576;23;20187;-89
2021/11/05 13:09:44;;;;;;;4.37;1.30;;;8.90;99.90;;;;;;6249860;23;20505;-89
2021/11/05 13:12:20;;;;;;;2.70;1.27;;;8.90;99.90;;;;;;6249562;23;20259;-88
2021/11/05 13:14:58;;;;;;;7.73;1.70;;;8.90;99.90;;;;;;6249393;23;20618;-87
2021/11/05 13:17:38;;;;;;;4.33;1.40;;;8.80;99.90;;;;;;6249518;23;20575;-88
2021/11/05 13:20:12;;;;;;;3.50;1.30;;;8.80;99.90;;;;;;6250307;23;20258;-89
2021/11/05 13:22:45;;;;;;;6.70;2.00;;;8.90;99.90;;;;;;6249611;23;20482;-89
2021/11/05 13:25:20;;;;;;;2.87;1.30;;;8.90;99.90;;;;;;6248422;23;20171;-87
2021/11/05 13:28:01;;;;;;;4.90;1.80;;;8.80;99.90;;;;;;6225351;23;20171;-90
2021/11/05 13:30:37;;;;;;;2.47;1.20;;;8.80;99.90;;;;;;6251853;23;20187;-88
2021/11/05 13:33:10;;;;;;;8.03;1.90;;;8.80;99.90;;;;;;6252351;23;20195;-88
2021/11/05 13:35:52;;;;;;;3.30;1.67;;;8.70;99.90;;;;;;6227061;23;20168;-88